Time;durP1;ratioP1;P1;durP2;ratioP2;P2;SDS_P1;SDS_P2;PMS_P1;PMS_P2;Temp;Humidity;BMP_temperature;BMP_pressure;BME280_temperature;BME280_humidity;BME280_pressure;Samples;Min_cycle;Max_cycle;Signal;HPM_P1;HPM_P2
2022/10/24 00:00:53;;;;;;;11.80;7.47;;;;;;;14.74;89.32;95371.50;4878672;29;20217;-83
2022/10/24 00:03:21;;;;;;;13.03;7.57;;;;;;;14.49;89.37;95335.22;4881705;29;20212;-83
2022/10/24 00:05:48;;;;;;;11.00;7.03;;;;;;;14.54;89.42;95335.59;4885254;29;20193;-80
2022/10/24 00:08:16;;;;;;;8.60;7.20;;;;;;;14.66;89.30;95356.78;4885334;29;20677;-80
2022/10/24 00:10:44;;;;;;;11.17;8.23;;;;;;;14.68;89.72;95359.19;4879052;29;20748;-78
2022/10/24 00:13:11;;;;;;;9.03;7.33;;;;;;;14.66;89.67;95356.78;4878944;29;20189;-79
2022/10/24 00:15:39;;;;;;;9.13;7.47;;;;;;;14.60;89.64;95348.84;4879051;29;20189;-80
2022/10/24 00:18:06;;;;;;;10.13;7.50;;;;;;;14.64;89.45;95357.91;4877560;29;20249;-80
2022/10/24 00:20:35;;;;;;;10.40;7.53;;;;;;;14.63;89.51;95351.91;4876575;29;20194;-79
2022/10/24 00:23:02;;;;;;;12.60;8.10;;;;;;;14.47;89.50;95328.59;4884256;29;20216;-79
2022/10/24 00:25:29;;;;;;;9.53;7.27;;;;;;;14.60;89.66;95347.09;4894484;29;20192;-79
2022/10/24 00:27:56;;;;;;;8.40;7.30;;;;;;;14.49;89.61;95331.84;4894550;29;20684;-78
2022/10/24 00:30:23;;;;;;;10.83;7.70;;;;;;;14.58;89.67;95345.59;4893985;29;20188;-78
2022/10/24 00:32:51;;;;;;;14.70;8.03;;;;;;;14.55;89.71;95339.81;4895639;29;20201;-78
2022/10/24 00:35:18;;;;;;;11.70;7.73;;;;;;;14.49;89.68;95339.56;4898079;29;20196;-79
2022/10/24 00:37:46;;;;;;;9.13;7.10;;;;;;;14.51;89.59;95343.63;4898042;29;20808;-79
2022/10/24 00:40:17;;;;;;;10.70;7.80;;;;;;;14.50;89.68;95343.75;4897116;29;20644;-82
2022/10/24 00:42:44;;;;;;;10.37;7.00;;;;;;;14.49;89.69;95337.78;4881705;29;20204;-78
2022/10/24 00:45:45;;;;;;;8.37;6.57;;;;;;;14.48;89.96;95345.63;4879985;29;20201;-79
2022/10/24 00:48:19;;;;;;;9.73;7.27;;;;;;;14.28;89.91;95317.44;4879151;29;20184;-78
2022/10/24 00:50:47;;;;;;;8.73;7.03;;;;;;;14.37;89.94;95328.63;4879280;29;20220;-82
2022/10/24 00:53:16;;;;;;;9.43;7.23;;;;;;;14.34;90.25;95325.56;4879216;29;20575;-80
2022/10/24 00:55:46;;;;;;;9.07;7.27;;;;;;;14.17;89.95;95299.66;4879768;29;20200;-79
2022/10/24 00:58:15;;;;;;;10.33;7.13;;;;;;;14.39;90.16;95344.75;4881257;29;20228;-80
2022/10/24 01:00:42;;;;;;;8.10;6.30;;;;;;;14.26;90.23;95328.84;4897806;29;20564;-79
2022/10/24 01:03:10;;;;;;;8.50;6.60;;;;;;;14.25;90.22;95322.09;4897579;29;20196;-79
2022/10/24 01:05:46;;;;;;;7.03;6.13;;;;;;;14.32;90.19;95339.34;4902441;29;20189;-83
2022/10/24 01:08:26;;;;;;;8.07;6.00;;;;;;;14.30;90.25;95337.91;4905229;29;20198;-82
2022/10/24 01:11:03;;;;;;;9.10;6.87;;;;;;;14.33;90.14;95340.16;4898336;29;20231;-79
2022/10/24 01:13:40;;;;;;;12.20;6.97;;;;;;;14.31;90.26;95344.66;4898051;29;20196;-80
2022/10/24 01:16:13;;;;;;;8.83;6.07;;;;;;;14.30;90.27;95341.28;4894195;29;20596;-81
2022/10/24 01:18:47;;;;;;;8.93;6.53;;;;;;;14.27;90.20;95341.56;4878919;29;20230;-80
2022/10/24 01:21:24;;;;;;;11.73;7.10;;;;;;;14.29;90.20;95354.28;4878826;29;20272;-81
2022/10/24 01:24:15;;;;;;;9.43;6.37;;;;;;;14.16;90.17;95326.34;4878455;29;20219;-78
2022/10/24 01:27:12;;;;;;;7.30;5.90;;;;;;;14.25;90.38;95350.41;4879449;29;20644;-79
2022/10/24 01:30:02;;;;;;;9.00;6.30;;;;;;;14.23;90.27;95352.28;4878820;29;20197;-82
2022/10/24 01:32:37;;;;;;;8.70;6.63;;;;;;;14.20;90.22;95343.06;4878482;29;20189;-80
2022/10/24 01:35:16;;;;;;;9.07;6.60;;;;;;;14.20;90.29;95347.41;4878788;29;20189;-81
2022/10/24 01:37:49;;;;;;;9.83;6.47;;;;;;;14.18;90.22;95339.06;4884262;29;20224;-81
2022/10/24 01:40:20;;;;;;;10.20;7.13;;;;;;;14.17;90.08;95343.38;4897193;29;20274;-81
2022/10/24 01:42:50;;;;;;;8.83;6.47;;;;;;;14.12;89.95;95344.75;4897791;29;20196;-80
2022/10/24 01:45:24;;;;;;;8.00;6.77;;;;;;;14.06;89.98;95344.38;4896778;29;20193;-80
2022/10/24 01:47:56;;;;;;;12.83;7.20;;;;;;;14.13;89.81;95354.09;4895571;29;20286;-81
2022/10/24 01:50:26;;;;;;;9.70;6.30;;;;;;;14.12;89.62;95337.88;4859599;29;20190;-81
2022/10/24 01:52:56;;;;;;;10.43;6.60;;;;;;;13.99;89.42;95327.09;4859484;29;20198;-80
2022/10/24 01:55:23;;;;;;;10.03;6.73;;;;;;;14.10;89.52;95344.09;4859479;29;20206;-80
2022/10/24 01:57:50;;;;;;;7.47;6.67;;;;;;;14.03;89.42;95330.97;4859464;29;20239;-81
2022/10/24 02:00:21;;;;;;;8.17;6.00;;;;;;;14.06;89.27;95336.66;4885752;29;20188;-84
2022/10/24 02:02:51;;;;;;;9.73;7.27;;;;;;;14.06;89.18;95346.94;4893931;29;20198;-80
2022/10/24 02:05:24;;;;;;;7.90;6.80;;;;;;;14.05;89.04;95349.66;4877817;29;20200;-79
2022/10/24 02:07:54;;;;;;;7.13;6.43;;;;;;;13.97;89.29;95334.94;4877821;29;20292;-79
2022/10/24 02:10:27;;;;;;;8.77;6.37;;;;;;;14.02;89.19;95343.03;4883346;29;20229;-79
2022/10/24 02:12:59;;;;;;;8.40;6.43;;;;;;;13.77;89.13;95308.53;4896299;29;20196;-80
2022/10/24 02:15:31;;;;;;;8.80;6.60;;;;;;;13.88;89.17;95332.44;4896762;29;20200;-80
2022/10/24 02:17:58;;;;;;;8.80;6.40;;;;;;;13.98;89.17;95346.03;4896285;29;20228;-82
2022/10/24 02:20:33;;;;;;;7.37;6.33;;;;;;;13.92;89.19;95344.84;4893028;29;20190;-81
2022/10/24 02:23:06;;;;;;;7.73;6.93;;;;;;;13.96;89.08;95347.97;4878478;29;20215;-82
2022/10/24 02:25:36;;;;;;;8.23;6.23;;;;;;;13.88;89.10;95337.56;4877944;29;20556;-80
2022/10/24 02:28:07;;;;;;;8.03;6.07;;;;;;;13.83;89.07;95326.91;4879133;29;20193;-79
2022/10/24 02:30:42;;;;;;;12.10;6.53;;;;;;;13.92;88.91;95339.72;4879013;29;20199;-82
2022/10/24 02:33:10;;;;;;;7.67;6.30;;;;;;;13.92;88.88;95346.63;4862834;29;20279;-80
2022/10/24 02:35:40;;;;;;;8.57;6.47;;;;;;;13.89;88.90;95339.97;4879635;29;20193;-80
2022/10/24 02:38:14;;;;;;;8.53;6.40;;;;;;;13.74;88.89;95313.13;4880166;29;20589;-78
2022/10/24 02:40:43;;;;;;;7.73;6.13;;;;;;;13.87;89.14;95347.03;4878764;29;20193;-80
2022/10/24 02:43:12;;;;;;;8.77;6.27;;;;;;;13.77;89.22;95329.09;4877233;29;20208;-79
2022/10/24 02:45:41;;;;;;;9.53;6.10;;;;;;;13.85;89.07;95330.13;4877152;29;20571;-79
2022/10/24 02:48:12;;;;;;;9.27;6.20;;;;;;;13.71;89.18;95315.97;4877511;29;20193;-81
2022/10/24 02:50:41;;;;;;;8.67;6.33;;;;;;;13.81;89.40;95335.53;4877761;29;20215;-78
2022/10/24 02:53:10;;;;;;;8.57;6.43;;;;;;;13.87;89.42;95343.66;4877133;29;20204;-79
2022/10/24 02:55:37;;;;;;;9.17;6.43;;;;;;;13.85;89.40;95343.78;4876214;29;20294;-80
2022/10/24 02:58:04;;;;;;;7.00;6.30;;;;;;;13.65;89.31;95308.84;4877181;29;20240;-80
2022/10/24 03:00:31;;;;;;;15.03;7.43;;;;;;;13.85;89.26;95340.41;4860498;29;20332;-83
2022/10/24 03:02:59;;;;;;;15.87;7.63;;;;;;;13.85;89.47;95337.84;4886107;29;20189;-85
2022/10/24 03:05:26;;;;;;;9.70;7.13;;;;;;;13.84;89.55;95337.03;4912624;29;20188;-78
2022/10/24 03:07:53;;;;;;;11.00;7.27;;;;;;;13.82;89.54;95341.53;4898442;29;20618;-80
2022/10/24 03:10:20;;;;;;;7.43;6.53;;;;;;;13.81;89.40;95338.13;4882932;29;20714;-79
2022/10/24 03:12:47;;;;;;;7.33;6.17;;;;;;;13.81;89.53;95339.88;4895878;29;20219;-80
2022/10/24 03:15:14;;;;;;;8.43;7.10;;;;;;;13.79;89.33;95334.88;4895746;29;20196;-80
2022/10/24 03:17:41;;;;;;;9.67;7.03;;;;;;;13.71;89.12;95319.34;4895154;29;20220;-80
2022/10/24 03:20:10;;;;;;;9.20;7.00;;;;;;;13.70;89.45;95328.03;4895932;29;20196;-81
2022/10/24 03:22:37;;;;;;;9.30;6.80;;;;;;;13.75;89.31;95333.56;4895535;29;20205;-79
2022/10/24 03:25:05;;;;;;;8.50;6.43;;;;;;;13.73;89.15;95335.47;4896000;29;20192;-80
2022/10/24 03:27:32;;;;;;;11.00;7.23;;;;;;;13.68;89.30;95324.78;4894584;29;20208;-81
2022/10/24 03:29:59;;;;;;;7.33;6.37;;;;;;;13.71;89.19;95333.97;4895725;29;20184;-80
2022/10/24 03:32:28;;;;;;;9.90;7.00;;;;;;;13.71;89.21;95339.94;4894970;29;20199;-81
2022/10/24 03:34:57;;;;;;;8.57;7.30;;;;;;;13.49;89.24;95302.53;4877387;29;20225;-82
2022/10/24 03:37:28;;;;;;;9.50;7.23;;;;;;;13.62;89.29;95324.53;4876469;29;20229;-80
2022/10/24 03:39:55;;;;;;;8.40;6.53;;;;;;;13.67;89.28;95332.63;4876491;29;20201;-81
2022/10/24 03:42:32;;;;;;;8.87;7.00;;;;;;;13.66;89.41;95331.84;4876145;29;20197;-80
2022/10/24 03:45:02;;;;;;;8.30;6.37;;;;;;;13.62;89.22;95338.19;4844691;29;20514;-80
2022/10/24 03:47:31;;;;;;;8.60;6.97;;;;;;;13.58;89.32;95326.59;4879626;29;20207;-80
2022/10/24 03:49:58;;;;;;;9.43;6.83;;;;;;;13.61;89.46;95334.03;4894564;29;20196;-82
2022/10/24 03:52:27;;;;;;;10.00;6.60;;;;;;;13.51;89.24;95320.38;4876953;29;20193;-82
2022/10/24 03:54:54;;;;;;;8.47;6.57;;;;;;;13.59;89.24;95338.47;4876514;29;20196;-80
2022/10/24 03:57:21;;;;;;;9.30;7.13;;;;;;;13.59;89.41;95332.53;4876844;29;20708;-80
2022/10/24 03:59:48;;;;;;;11.07;7.17;;;;;;;13.34;89.21;95297.97;4876859;29;20204;-81
2022/10/24 04:02:14;;;;;;;9.37;6.87;;;;;;;13.54;89.39;95325.25;4880990;29;20244;-81
2022/10/24 04:04:42;;;;;;;8.80;5.93;;;;;;;13.47;89.21;95324.16;4895982;29;20189;-84
2022/10/24 04:07:09;;;;;;;8.33;7.20;;;;;;;13.50;89.12;95329.03;4897108;29;20282;-81
2022/10/24 04:09:37;;;;;;;9.23;6.73;;;;;;;13.30;89.41;95289.75;4893322;29;20185;-81
2022/10/24 04:12:04;;;;;;;10.67;8.03;;;;;;;13.52;89.41;95324.59;4881055;29;20205;-81
2022/10/24 04:14:31;;;;;;;9.20;7.03;;;;;;;13.51;89.43;95326.34;4880824;29;20209;-79
2022/10/24 04:16:58;;;;;;;9.23;6.93;;;;;;;13.38;89.46;95301.88;4880911;29;20221;-81
2022/10/24 04:19:25;;;;;;;8.53;7.27;;;;;;;13.48;89.47;95316.34;4881106;29;20288;-81
2022/10/24 04:21:52;;;;;;;9.57;7.20;;;;;;;13.24;89.52;95280.84;4882802;29;20227;-80
2022/10/24 04:24:31;;;;;;;8.93;6.50;;;;;;;13.24;89.41;95285.97;4882006;29;20235;-80
2022/10/24 04:27:00;;;;;;;6.87;6.10;;;;;;;13.46;89.46;95325.13;4896237;29;20279;-80
2022/10/24 04:29:27;;;;;;;11.07;6.90;;;;;;;13.46;89.47;95323.34;4899147;29;20683;-80
2022/10/24 04:31:53;;;;;;;9.93;7.50;;;;;;;13.45;89.57;95319.19;4900407;29;20207;-80
2022/10/24 04:34:20;;;;;;;9.80;6.83;;;;;;;13.33;89.88;95307.44;4899881;29;20656;-80
2022/10/24 04:36:47;;;;;;;9.47;6.67;;;;;;;13.42;89.72;95332.28;4901488;29;20212;-79
2022/10/24 04:39:14;;;;;;;10.57;6.67;;;;;;;13.44;89.67;95337.31;4899984;29;20191;-84
2022/10/24 04:41:41;;;;;;;11.47;6.93;;;;;;;13.30;90.08;95321.38;4899164;29;20208;-86
2022/10/24 04:44:09;;;;;;;11.00;7.23;;;;;;;13.40;89.95;95323.94;4898808;29;20567;-81
2022/10/24 04:46:36;;;;;;;11.50;6.90;;;;;;;13.32;89.85;95320.44;4881870;29;20196;-83
2022/10/24 04:49:03;;;;;;;8.67;6.07;;;;;;;13.44;89.97;95339.88;4879869;29;20687;-80
2022/10/24 04:51:30;;;;;;;10.37;7.20;;;;;;;13.43;89.70;95346.78;4879685;29;20204;-81
2022/10/24 04:53:56;;;;;;;11.87;6.67;;;;;;;13.43;89.81;95341.66;4879521;29;20198;-83
2022/10/24 04:56:24;;;;;;;9.10;6.63;;;;;;;13.45;90.03;95349.22;4881695;29;20261;-81
2022/10/24 04:58:51;;;;;;;11.47;7.00;;;;;;;13.45;90.10;95346.63;4886584;29;20221;-82
2022/10/24 05:01:19;;;;;;;15.00;6.77;;;;;;;13.39;89.83;95337.72;4892261;29;20387;-80
2022/10/24 05:03:46;;;;;;;10.17;4.47;;;;;;;13.61;98.81;95338.34;4892829;29;20208;-82
2022/10/24 05:06:14;;;;;;;7.13;4.90;;;;;;;14.00;100.00;95342.38;4882629;29;20196;-82
2022/10/24 05:08:41;;;;;;;11.23;4.80;;;;;;;14.39;100.00;95336.22;4879123;29;20251;-80
2022/10/24 05:11:10;;;;;;;10.43;5.33;;;;;;;14.82;100.00;95345.84;4879109;29;20247;-80
2022/10/24 05:13:37;;;;;;;9.77;4.87;;;;;;;15.21;100.00;95345.50;4878973;29;20193;-81
2022/10/24 05:16:04;;;;;;;6.57;4.37;;;;;;;15.50;100.00;95343.47;4879020;29;20207;-82
2022/10/24 05:18:33;;;;;;;9.13;4.73;;;;;;;15.85;100.00;95343.53;4877786;29;20593;-80
2022/10/24 05:21:00;;;;;;;10.27;5.23;;;;;;;16.11;100.00;95343.47;4867278;29;20216;-81
2022/10/24 05:23:27;;;;;;;13.93;6.30;;;;;;;16.29;100.00;95342.41;4896934;29;20199;-80
2022/10/24 05:25:54;;;;;;;11.73;6.13;;;;;;;16.35;98.90;95350.47;4890221;29;20234;-83
2022/10/24 05:28:21;;;;;;;16.37;6.00;;;;;;;15.86;95.70;95271.13;4884278;29;20212;-81
2022/10/24 05:30:48;;;;;;;10.87;5.80;;;;;;;16.27;93.57;95339.16;4878012;29;20248;-80
2022/10/24 05:33:15;;;;;;;13.63;6.50;;;;;;;16.24;92.06;95344.66;4877827;29;20670;-79
2022/10/24 05:35:43;;;;;;;17.83;6.60;;;;;;;16.21;90.88;95350.13;4878436;29;20194;-81
2022/10/24 05:38:11;;;;;;;11.40;6.40;;;;;;;16.19;89.79;95344.31;4878107;29;20610;-81
2022/10/24 05:40:38;;;;;;;10.63;6.90;;;;;;;16.17;88.98;95345.41;4877796;29;20219;-80
2022/10/24 05:43:04;;;;;;;13.13;6.77;;;;;;;16.19;88.55;95361.53;4878042;29;20205;-81
2022/10/24 05:45:31;;;;;;;8.40;5.63;;;;;;;16.19;88.11;95358.97;4878569;29;20189;-79
2022/10/24 05:47:58;;;;;;;11.00;6.90;;;;;;;16.19;87.62;95361.53;4878388;29;20212;-78
2022/10/24 05:50:25;;;;;;;11.67;7.50;;;;;;;16.17;87.54;95359.13;4878028;29;20189;-81
2022/10/24 05:52:54;;;;;;;14.97;8.97;;;;;;;16.19;87.08;95362.38;4878079;29;20200;-78
2022/10/24 05:55:20;;;;;;;13.97;8.10;;;;;;;16.24;86.83;95370.47;4877956;29;20193;-78
2022/10/24 05:57:47;;;;;;;20.57;9.17;;;;;;;16.22;86.79;95367.22;4877980;29;20224;-79
2022/10/24 06:00:17;;;;;;;9.33;8.17;;;;;;;16.34;86.64;95380.66;4877947;29;20197;-78
2022/10/24 06:02:44;;;;;;;14.53;8.17;;;;;;;16.40;86.59;95379.22;4883063;29;20302;-80
2022/10/24 06:05:12;;;;;;;14.63;7.50;;;;;;;16.42;86.36;95372.94;4877752;29;20196;-78
2022/10/24 06:07:40;;;;;;;16.83;8.57;;;;;;;16.54;86.51;95386.38;4878002;29;20193;-77
2022/10/24 06:10:10;;;;;;;10.30;8.23;;;;;;;16.67;87.18;95391.09;4875743;29;20217;-81
2022/10/24 06:12:38;;;;;;;9.93;7.47;;;;;;;16.83;87.28;95378.22;4876702;29;20228;-80
2022/10/24 06:15:07;;;;;;;11.90;8.63;;;;;;;17.15;88.52;95382.63;4877376;29;20211;-79
2022/10/24 06:17:34;;;;;;;14.07;9.20;;;;;;;17.53;90.34;95377.75;4877542;29;20197;-78
2022/10/24 06:20:01;;;;;;;12.40;9.63;;;;;;;17.87;92.04;95366.38;4876817;29;20197;-79
2022/10/24 06:22:28;;;;;;;13.63;9.50;;;;;;;18.36;94.02;95377.41;4879041;29;20196;-83
2022/10/24 06:24:56;;;;;;;15.77;9.33;;;;;;;18.88;94.99;95381.19;4880308;29;20227;-81
2022/10/24 06:27:24;;;;;;;18.53;10.73;;;;;;;19.39;95.83;95394.44;4879829;29;20211;-82
2022/10/24 06:29:51;;;;;;;14.40;10.10;;;;;;;19.89;96.07;95391.25;4876538;29;20196;-81
2022/10/24 06:32:18;;;;;;;13.67;10.00;;;;;;;20.41;96.22;95386.94;4878107;29;20220;-82
2022/10/24 06:34:45;;;;;;;13.70;9.63;;;;;;;20.88;96.08;95380.50;4878614;29;20197;-81
2022/10/24 06:37:12;;;;;;;13.33;9.50;;;;;;;21.41;95.68;95391.41;4878726;29;20297;-79
2022/10/24 06:39:38;;;;;;;13.13;10.25;;;;;;;21.92;95.05;95396.41;4877150;29;20233;-79
2022/10/24 06:42:05;;;;;;;15.25;9.25;;;;;;;22.40;94.04;95402.50;4876468;29;20193;-79
2022/10/24 06:44:33;;;;;;;14.35;9.20;;;;;;;22.87;93.41;95403.50;4875624;29;20670;-80
2022/10/24 06:47:00;;;;;;;12.70;9.40;;;;;;;23.31;92.46;95409.25;4877072;29;20192;-77
2022/10/24 06:49:27;;;;;;;14.90;9.18;;;;;;;23.75;91.21;95409.50;4876240;29;20193;-78
2022/10/24 06:51:54;;;;;;;15.90;9.60;;;;;;;24.17;89.95;95415.25;4876806;29;20213;-77
2022/10/24 06:54:21;;;;;;;15.80;9.07;;;;;;;24.58;88.49;95427.25;4877828;29;20200;-78
2022/10/24 06:56:48;;;;;;;14.35;9.10;;;;;;;24.92;87.39;95418.25;4876612;29;20196;-77
2022/10/24 06:59:17;;;;;;;20.95;9.50;;;;;;;25.28;85.86;95425.53;4877412;29;20231;-80
2022/10/24 07:01:45;;;;;;;13.73;8.75;;;;;;;25.60;84.71;95416.84;4884310;29;20208;-78
2022/10/24 07:04:12;;;;;;;12.73;8.30;;;;;;;25.97;83.18;95418.56;4894677;29;20193;-80
2022/10/24 07:06:39;;;;;;;15.48;9.38;;;;;;;26.28;82.09;95419.50;4884729;29;20213;-80
2022/10/24 07:09:06;;;;;;;13.75;8.40;;;;;;;26.55;81.15;95420.03;4878791;29;20201;-78
2022/10/24 07:11:33;;;;;;;10.32;8.02;;;;;;;26.84;79.53;95420.31;4877472;29;20225;-80
2022/10/24 07:14:02;;;;;;;10.52;8.45;;;;;;;27.09;78.60;95418.38;4876668;29;20287;-84
2022/10/24 07:16:28;;;;;;;12.10;8.05;;;;;;;27.35;77.92;95419.03;4877621;29;20581;-81
2022/10/24 07:18:57;;;;;;;9.15;6.85;;;;;;;27.58;76.98;95421.69;4875726;29;20224;-81
2022/10/24 07:21:26;;;;;;;9.05;7.43;;;;;;;27.81;75.98;95414.91;4876759;29;20212;-82
2022/10/24 07:23:54;;;;;;;11.80;7.20;;;;;;;28.04;74.76;95414.13;4875625;29;20205;-81
2022/10/24 07:26:22;;;;;;;12.95;7.25;;;;;;;28.25;74.17;95405.66;4875700;29;20197;-81
2022/10/24 07:28:52;;;;;;;10.40;7.55;;;;;;;28.45;73.24;95421.06;4875558;29;20863;-80
2022/10/24 07:31:20;;;;;;;7.72;6.22;;;;;;;28.56;72.28;95404.47;4874531;29;20203;-80
2022/10/24 07:33:47;;;;;;;9.02;6.30;;;;;;;28.77;70.95;95408.31;4873194;29;20600;-79
2022/10/24 07:36:18;;;;;;;11.18;6.97;;;;;;;28.91;70.50;95409.63;4875703;29;20217;-81
2022/10/24 07:38:45;;;;;;;11.32;7.20;;;;;;;29.09;69.43;95411.28;4872597;29;20254;-81
2022/10/24 07:41:12;;;;;;;7.72;6.05;;;;;;;29.21;68.65;95417.31;4875207;29;20208;-82
2022/10/24 07:43:39;;;;;;;10.27;7.43;;;;;;;29.33;68.41;95430.44;4875083;29;20200;-81
2022/10/24 07:46:07;;;;;;;10.75;6.50;;;;;;;29.43;68.00;95424.53;4875347;29;20201;-81
2022/10/24 07:48:34;;;;;;;7.28;5.93;;;;;;;29.40;67.15;95410.00;4876048;29;20205;-82
2022/10/24 07:51:05;;;;;;;11.20;6.75;;;;;;;29.56;66.78;95419.00;4875773;29;20201;-82
2022/10/24 07:53:34;;;;;;;9.00;6.65;;;;;;;29.54;66.37;95414.97;4876217;29;20224;-81
2022/10/24 07:56:01;;;;;;;12.50;6.97;;;;;;;29.44;66.77;95410.31;4876866;29;20201;-84
2022/10/24 07:58:28;;;;;;;10.38;6.93;;;;;;;29.23;67.12;95399.44;4876345;29;20725;-81
2022/10/24 08:00:55;;;;;;;10.13;6.07;;;;;;;29.09;67.50;95406.03;4878282;29;20191;-80
2022/10/24 08:03:22;;;;;;;12.32;6.15;;;;;;;28.92;67.26;95411.22;4878733;29;20212;-82
2022/10/24 08:05:49;;;;;;;14.40;6.00;;;;;;;28.70;66.55;95415.53;4876556;29;20711;-82
2022/10/24 08:08:16;;;;;;;8.32;5.93;;;;;;;28.46;65.67;95412.16;4875750;29;20201;-82
2022/10/24 08:10:44;;;;;;;10.27;5.93;;;;;;;28.21;65.24;95405.31;4878894;29;20233;-84
2022/10/24 08:13:17;;;;;;;9.35;6.15;;;;;;;27.94;65.14;95401.56;4880827;29;20205;-80
2022/10/24 08:15:44;;;;;;;11.52;6.40;;;;;;;27.71;65.19;95400.47;4885109;29;20660;-80
2022/10/24 08:18:11;;;;;;;11.48;6.35;;;;;;;27.49;64.84;95404.66;4880947;29;20218;-79
2022/10/24 08:20:37;;;;;;;11.30;6.25;;;;;;;27.27;64.90;95405.19;4879231;29;20211;-80
2022/10/24 08:23:04;;;;;;;7.90;5.90;;;;;;;27.08;64.75;95395.75;4876136;29;20685;-82
2022/10/24 08:25:31;;;;;;;9.20;5.65;;;;;;;26.90;64.65;95398.41;4881541;29;20212;-83
2022/10/24 08:27:59;;;;;;;12.43;5.60;;;;;;;26.68;64.73;95391.00;4878947;29;20202;-80
2022/10/24 08:30:27;;;;;;;9.02;5.35;;;;;;;26.53;64.84;95390.59;4876270;29;20202;-80
2022/10/24 08:32:53;;;;;;;12.32;5.38;;;;;;;26.23;65.01;95374.75;4881821;29;20197;-85
2022/10/24 08:35:20;;;;;;;13.73;6.55;;;;;;;26.20;64.42;95390.94;4888637;29;20764;-83
2022/10/24 08:37:47;;;;;;;8.25;5.85;;;;;;;25.96;64.35;95371.63;4884315;29;20205;-86
2022/10/24 08:40:18;;;;;;;10.13;5.63;;;;;;;25.40;64.48;95310.44;4882008;29;20209;-82
2022/10/24 08:42:46;;;;;;;8.80;5.72;;;;;;;25.68;65.27;95369.41;4881621;29;20208;-84
2022/10/24 08:45:19;;;;;;;7.90;6.28;;;;;;;25.60;64.98;95383.59;4884325;29;20193;-81
2022/10/24 08:47:53;;;;;;;12.10;6.32;;;;;;;25.46;65.13;95380.28;4879787;29;20233;-81
2022/10/24 08:50:24;;;;;;;9.02;6.38;;;;;;;25.17;65.41;95344.22;4881469;29;20205;-83
2022/10/24 08:52:58;;;;;;;12.95;6.82;;;;;;;25.23;65.57;95364.34;4898901;29;20201;-82
2022/10/24 08:55:28;;;;;;;11.32;6.53;;;;;;;25.12;65.99;95365.81;4897687;29;20289;-79
2022/10/24 08:57:59;;;;;;;12.52;6.47;;;;;;;25.02;65.47;95357.59;4906818;29;20200;-78
2022/10/24 09:00:33;;;;;;;8.93;6.63;;;;;;;24.93;65.56;95361.50;4896648;29;20728;-79
2022/10/24 09:03:10;;;;;;;10.10;6.28;;;;;;;24.85;66.31;95359.13;4899952;29;20215;-80
2022/10/24 09:05:42;;;;;;;11.02;7.18;;;;;;;24.74;66.46;95350.09;4895627;29;20203;-78
2022/10/24 09:08:22;;;;;;;12.10;6.90;;;;;;;24.67;66.70;95358.00;4904596;29;20204;-80
2022/10/24 09:10:55;;;;;;;10.95;7.35;;;;;;;24.56;67.20;95350.00;4903945;29;20240;-79
2022/10/24 09:13:22;;;;;;;12.80;7.22;;;;;;;24.49;67.08;95347.44;4892461;29;20205;-79
2022/10/24 09:15:51;;;;;;;14.40;6.65;;;;;;;24.43;67.16;95346.44;4899749;29;21146;-79
2022/10/24 09:18:22;;;;;;;7.60;6.72;;;;;;;24.36;66.98;95347.47;4896483;29;20208;-82
2022/10/24 09:20:50;;;;;;;12.88;7.05;;;;;;;24.25;67.60;95336.63;4887087;29;20658;-80
2022/10/24 09:23:19;;;;;;;10.48;7.15;;;;;;;24.16;68.01;95335.25;4887323;29;20284;-79
2022/10/24 09:25:49;;;;;;;13.30;7.18;;;;;;;24.10;68.33;95341.31;4893491;29;20193;-83
2022/10/24 09:28:17;;;;;;;14.50;7.75;;;;;;;24.15;68.28;95354.56;4887865;29;20229;-83
2022/10/24 09:30:44;;;;;;;9.07;7.85;;;;;;;24.10;68.54;95348.34;4885395;29;20211;-83
2022/10/24 09:33:23;;;;;;;11.32;7.45;;;;;;;24.08;68.09;95343.31;4877797;29;20201;-83
2022/10/24 09:35:50;;;;;;;12.07;7.65;;;;;;;24.05;68.11;95341.13;4882874;29;20232;-80
2022/10/24 09:38:32;;;;;;;7.72;6.28;;;;;;;24.00;67.99;95327.84;4889725;29;20219;-81
2022/10/24 09:41:01;;;;;;;16.23;7.63;;;;;;;23.96;68.27;95332.72;4874904;29;20224;-81
2022/10/24 09:43:35;;;;;;;13.05;7.53;;;;;;;23.97;67.84;95339.53;4885177;29;20249;-81
2022/10/24 09:46:06;;;;;;;9.32;7.20;;;;;;;23.89;68.15;95331.91;4889712;29;20219;-82
2022/10/24 09:48:44;;;;;;;10.90;7.32;;;;;;;23.92;68.46;95336.75;4889306;29;20209;-79
2022/10/24 09:51:20;;;;;;;11.38;6.95;;;;;;;23.91;68.82;95324.66;4882013;29;20221;-82
2022/10/24 09:54:03;;;;;;;13.15;7.07;;;;;;;23.88;69.07;95322.47;4890222;29;20204;-80
2022/10/24 09:56:34;;;;;;;11.98;7.18;;;;;;;23.91;69.09;95329.09;4902512;29;20220;-82
2022/10/24 09:59:18;;;;;;;10.52;7.15;;;;;;;23.91;69.75;95331.69;4876510;29;20233;-80
2022/10/24 10:01:45;;;;;;;10.15;7.47;;;;;;;23.90;69.45;95325.69;4886102;29;20200;-81
2022/10/24 10:04:18;;;;;;;11.25;7.35;;;;;;;23.86;69.01;95314.03;4878104;29;20200;-80
2022/10/24 10:06:47;;;;;;;9.60;7.60;;;;;;;23.78;68.64;95298.56;4883089;29;20204;-79
2022/10/24 10:09:23;;;;;;;13.30;7.03;;;;;;;23.91;68.63;95314.22;4884898;29;20192;-83
2022/10/24 10:11:55;;;;;;;10.98;6.97;;;;;;;23.90;68.93;95307.38;4857820;29;20590;-83
2022/10/24 10:14:25;;;;;;;9.70;6.95;;;;;;;23.93;69.16;95309.59;4858034;29;20588;-80
2022/10/24 10:16:59;;;;;;;9.70;6.88;;;;;;;23.95;69.93;95309.38;4858282;29;20208;-81
2022/10/24 10:19:32;;;;;;;10.32;6.90;;;;;;;23.95;69.59;95307.56;4857561;29;20232;-79
2022/10/24 10:22:01;;;;;;;12.48;7.25;;;;;;;23.95;69.07;95297.13;4856758;29;20221;-79
2022/10/24 10:24:37;;;;;;;10.20;7.32;;;;;;;23.94;69.12;95287.69;4855571;29;20190;-79
2022/10/24 10:27:30;;;;;;;10.60;6.88;;;;;;;23.95;69.41;95302.34;4858586;29;20201;-80
2022/10/24 10:30:14;;;;;;;11.45;6.68;;;;;;;23.96;69.75;95296.13;4858179;29;20206;-78
2022/10/24 10:32:53;;;;;;;10.35;6.88;;;;;;;23.98;70.01;95288.06;4854983;29;20198;-85
2022/10/24 10:35:26;;;;;;;12.25;6.72;;;;;;;23.91;69.84;95280.25;4858112;29;20232;-82
2022/10/24 10:38:00;;;;;;;9.82;6.80;;;;;;;23.91;69.84;95269.00;4858000;29;20204;-80
2022/10/24 10:40:33;;;;;;;8.15;6.68;;;;;;;24.00;69.92;95283.44;4858855;29;20215;-79
2022/10/24 10:43:19;;;;;;;8.10;6.13;;;;;;;24.02;69.57;95278.81;4857550;29;20577;-80
2022/10/24 10:45:47;;;;;;;9.00;6.18;;;;;;;24.04;69.66;95274.16;4871994;29;20197;-78
2022/10/24 10:48:31;;;;;;;13.38;6.72;;;;;;;24.05;69.34;95270.56;4861427;29;20197;-78
2022/10/24 10:51:07;;;;;;;13.10;6.95;;;;;;;24.04;69.41;95269.75;4856907;29;20198;-80
2022/10/24 10:53:40;;;;;;;12.07;7.07;;;;;;;24.06;70.02;95269.56;4856811;29;20197;-81
2022/10/24 10:56:21;;;;;;;11.48;6.53;;;;;;;24.06;69.91;95260.91;4857745;29;20294;-83
2022/10/24 10:59:00;;;;;;;9.35;6.25;;;;;;;24.06;70.04;95260.91;4857961;29;20197;-82
2022/10/24 11:01:35;;;;;;;8.63;6.07;;;;;;;24.08;70.51;95256.28;4857580;29;20193;-82
2022/10/24 11:04:13;;;;;;;9.82;6.13;;;;;;;24.08;70.63;95257.06;4857409;29;20697;-78
2022/10/24 11:06:52;;;;;;;11.13;6.88;;;;;;;24.08;70.50;95246.63;4854811;29;20220;-78
2022/10/24 11:09:26;;;;;;;7.57;5.55;;;;;;;24.08;70.22;95248.44;4856750;29;20208;-78
2022/10/24 11:12:01;;;;;;;10.30;6.38;;;;;;;24.09;69.94;95242.97;4857799;29;20198;-78
2022/10/24 11:14:35;;;;;;;11.75;6.72;;;;;;;24.10;69.70;95242.00;4857449;29;20589;-81
2022/10/24 11:17:11;;;;;;;9.77;6.22;;;;;;;24.07;70.32;95229.34;4855903;29;20209;-83
2022/10/24 11:19:54;;;;;;;11.60;6.28;;;;;;;24.13;70.64;95238.94;4855311;29;20248;-80
2022/10/24 11:22:26;;;;;;;9.02;6.35;;;;;;;24.14;70.46;95240.56;4857757;29;20337;-82
2022/10/24 11:25:00;;;;;;;6.85;5.53;;;;;;;24.12;70.37;95229.50;4855067;29;20202;-83
2022/10/24 11:27:35;;;;;;;11.68;5.32;;;;;;;24.17;70.27;95231.50;4855600;29;20201;-81
2022/10/24 11:30:13;;;;;;;9.02;6.38;;;;;;;24.07;70.13;95205.03;4858207;29;20209;-81
2022/10/24 11:32:47;;;;;;;9.75;5.93;;;;;;;24.02;70.22;95198.59;4861495;29;20769;-79
2022/10/24 11:35:24;;;;;;;9.00;5.65;;;;;;;24.14;70.53;95206.59;4866031;29;20217;-79
2022/10/24 11:37:56;;;;;;;10.02;5.32;;;;;;;24.20;70.74;95213.59;4860859;29;20277;-80
2022/10/24 11:40:27;;;;;;;11.90;6.05;;;;;;;24.18;70.49;95209.56;4857789;29;20221;-81
2022/10/24 11:42:58;;;;;;;11.23;6.88;;;;;;;24.07;70.18;95181.50;4859212;29;20194;-82